createdAt,value
2023-04-18T00:00:28.383Z,97.59
2023-04-18T00:01:29.855Z,97.64
2023-04-18T00:02:33.028Z,96.88
2023-04-18T00:03:36.655Z,96.51
2023-04-18T00:04:38.365Z,97.10
2023-04-18T00:05:40.218Z,96.92
2023-04-18T00:06:41.648Z,97.64
2023-04-18T00:07:43.047Z,96.17
2023-04-18T00:08:44.488Z,97.53
2023-04-18T00:09:45.966Z,96.79
2023-04-18T00:10:47.521Z,97.00
2023-04-18T00:11:48.932Z,97.17
2023-04-18T00:12:51.371Z,97.76
2023-04-18T00:13:52.862Z,96.11
2023-04-18T00:14:54.688Z,96.96
2023-04-18T00:15:56.700Z,97.20
2023-04-18T00:16:58.465Z,96.38
2023-04-18T00:18:00.742Z,96.01
2023-04-18T00:19:04.794Z,95.43
2023-04-18T00:20:09.574Z,97.10
2023-04-18T00:21:11.061Z,95.50
2023-04-18T00:22:13.221Z,95.96
2023-04-18T00:23:14.677Z,96.71
2023-04-18T00:24:16.614Z,96.13
2023-04-18T00:25:18.039Z,96.71
2023-04-18T00:26:19.710Z,96.15
2023-04-18T00:27:21.742Z,97.33
2023-04-18T00:28:23.047Z,96.80
2023-04-18T00:29:24.492Z,95.76
2023-04-18T00:30:27.035Z,96.16
2023-04-18T00:31:28.497Z,96.49
2023-04-18T00:32:30.006Z,96.83
2023-04-18T00:33:31.449Z,96.69
2023-04-18T00:34:32.895Z,97.34
2023-04-18T00:35:34.349Z,97.49
2023-04-18T00:36:35.932Z,96.62
2023-04-18T00:37:37.435Z,96.33
2023-04-18T00:38:39.071Z,97.41
2023-04-18T00:39:40.495Z,97.33
2023-04-18T00:40:41.939Z,97.53
2023-04-18T00:41:43.333Z,97.15
2023-04-18T00:42:44.724Z,98.03
2023-04-18T00:43:46.125Z,98.00
2023-04-18T00:44:48.093Z,98.40
2023-04-18T00:45:49.581Z,97.70
2023-04-18T00:46:51.150Z,96.65
2023-04-18T00:47:52.600Z,97.31
2023-04-18T00:48:54.346Z,98.12
2023-04-18T00:49:55.852Z,97.77
2023-04-18T00:50:57.377Z,98.07
2023-04-18T00:51:59.396Z,98.12
2023-04-18T00:53:00.849Z,98.31
2023-04-18T00:54:05.861Z,98.98
2023-04-18T00:55:08.450Z,99.13
2023-04-18T00:56:10.016Z,99.30
2023-04-18T00:57:12.364Z,99.63
2023-04-18T00:58:14.053Z,99.67
2023-04-18T00:59:15.827Z,99.91
2023-04-18T01:00:17.727Z,99.94
2023-04-18T01:01:19.168Z,100.00
2023-04-18T01:02:20.846Z,100.00
2023-04-18T01:03:23.063Z,100.00
2023-04-18T01:04:24.648Z,100.00
2023-04-18T01:05:26.994Z,100.00
2023-04-18T01:06:29.152Z,100.00
2023-04-18T01:07:31.813Z,100.00
2023-04-18T01:08:33.346Z,100.00
2023-04-18T01:09:34.923Z,100.00
2023-04-18T01:10:37.121Z,100.00
2023-04-18T01:11:38.597Z,100.00
2023-04-18T01:12:41.016Z,100.00
2023-04-18T01:13:42.413Z,100.00
2023-04-18T01:14:43.923Z,100.00
2023-04-18T01:15:50.597Z,100.00
2023-04-18T01:16:52.171Z,100.00
2023-04-18T01:17:53.618Z,100.00
2023-04-18T01:18:55.641Z,100.00
2023-04-18T01:19:57.875Z,100.00
2023-04-18T01:21:00.336Z,100.00
2023-04-18T01:22:01.778Z,100.00
2023-04-18T01:23:03.440Z,100.00
2023-04-18T01:24:12.481Z,100.00
2023-04-18T01:25:14.134Z,100.00
2023-04-18T01:26:15.675Z,100.00
2023-04-18T01:27:17.110Z,100.00
2023-04-18T01:28:21.321Z,100.00
2023-04-18T01:29:22.729Z,100.00
2023-04-18T01:30:24.311Z,100.00
2023-04-18T01:31:25.901Z,100.00
2023-04-18T01:32:27.353Z,100.00
2023-04-18T01:33:28.793Z,100.00
2023-04-18T01:34:30.321Z,100.00
2023-04-18T01:35:35.022Z,100.00
2023-04-18T01:36:38.996Z,100.00
2023-04-18T01:37:40.505Z,100.00
2023-04-18T01:38:41.985Z,100.00
2023-04-18T01:39:43.384Z,100.00
2023-04-18T01:40:44.844Z,100.00
2023-04-18T01:41:46.247Z,100.00
2023-04-18T01:42:47.655Z,100.00
2023-04-18T01:43:49.086Z,100.00
2023-04-18T01:44:50.484Z,100.00
2023-04-18T01:45:51.884Z,100.00
2023-04-18T01:46:53.345Z,100.00
2023-04-18T01:47:54.878Z,100.00
2023-04-18T01:48:57.095Z,100.00
2023-04-18T01:49:58.525Z,100.00
2023-04-18T01:50:59.942Z,100.00
2023-04-18T01:52:01.525Z,100.00
2023-04-18T01:53:02.932Z,100.00
2023-04-18T01:54:04.971Z,100.00
2023-04-18T01:55:06.608Z,100.00
2023-04-18T01:56:08.017Z,100.00
2023-04-18T01:57:09.544Z,100.00
2023-04-18T01:58:10.947Z,100.00
2023-04-18T01:59:12.468Z,100.00
2023-04-18T02:00:14.148Z,100.00
2023-04-18T02:01:15.659Z,100.00
2023-04-18T02:02:17.160Z,100.00
2023-04-18T02:03:18.924Z,100.00
2023-04-18T02:04:20.621Z,100.00
2023-04-18T02:05:22.224Z,100.00
2023-04-18T02:06:23.664Z,100.00
2023-04-18T02:07:25.120Z,100.00
2023-04-18T02:08:26.568Z,100.00
2023-04-18T02:09:27.954Z,100.00
2023-04-18T02:10:29.454Z,100.00
2023-04-18T02:11:30.938Z,100.00
2023-04-18T02:12:32.628Z,100.00
2023-04-18T02:13:34.059Z,100.00
2023-04-18T02:14:36.182Z,100.00
2023-04-18T02:15:37.534Z,100.00
2023-04-18T02:16:39.054Z,100.00
2023-04-18T02:17:41.418Z,100.00
2023-04-18T02:18:43.729Z,100.00
2023-04-18T02:19:45.608Z,100.00
2023-04-18T02:20:47.027Z,100.00
2023-04-18T02:21:48.443Z,100.00
2023-04-18T02:22:49.925Z,100.00
2023-04-18T02:23:51.594Z,100.00
2023-04-18T02:24:53.015Z,100.00
2023-04-18T02:25:54.513Z,100.00
2023-04-18T02:26:55.925Z,100.00
2023-04-18T02:27:58.101Z,100.00
2023-04-18T02:28:59.521Z,100.00
2023-04-18T02:30:00.918Z,100.00
2023-04-18T02:31:02.353Z,100.00
2023-04-18T02:32:04.052Z,100.00
2023-04-18T02:33:05.665Z,100.00
2023-04-18T02:34:07.866Z,100.00
2023-04-18T02:35:10.744Z,100.00
2023-04-18T02:36:12.505Z,100.00
2023-04-18T02:37:13.894Z,100.00
2023-04-18T02:38:15.374Z,100.00
2023-04-18T02:39:16.836Z,100.00
2023-04-18T02:40:18.902Z,100.00
2023-04-18T02:41:20.371Z,100.00
2023-04-18T02:42:21.808Z,100.00
2023-04-18T02:43:23.248Z,100.00
2023-04-18T02:44:25.183Z,100.00
2023-04-18T02:45:26.582Z,100.00
2023-04-18T02:46:28.036Z,100.00
2023-04-18T02:47:31.665Z,100.00
2023-04-18T02:48:34.994Z,100.00
2023-04-18T02:49:36.490Z,100.00
2023-04-18T02:50:38.000Z,100.00
2023-04-18T02:51:39.449Z,100.00
2023-04-18T02:52:40.858Z,100.00
2023-04-18T02:53:42.320Z,100.00
2023-04-18T02:54:43.860Z,100.00
2023-04-18T02:55:45.573Z,100.00
2023-04-18T02:56:46.987Z,100.00
2023-04-18T02:57:48.548Z,100.00
2023-04-18T02:58:50.083Z,100.00
2023-04-18T02:59:51.528Z,100.00
2023-04-18T03:00:54.501Z,100.00
2023-04-18T03:01:56.003Z,100.00
2023-04-18T03:02:57.519Z,100.00
2023-04-18T03:03:59.150Z,100.00
2023-04-18T03:05:00.613Z,100.00
2023-04-18T03:06:02.075Z,100.00
2023-04-18T03:07:03.532Z,100.00
2023-04-18T03:08:04.955Z,100.00
2023-04-18T03:09:06.430Z,100.00
2023-04-18T03:10:08.164Z,100.00
2023-04-18T03:11:09.548Z,100.00
2023-04-18T03:12:10.962Z,100.00
2023-04-18T03:13:12.373Z,100.00
2023-04-18T03:14:14.009Z,100.00
2023-04-18T03:15:15.611Z,100.00
2023-04-18T03:16:17.523Z,100.00
2023-04-18T03:17:19.101Z,100.00
2023-04-18T03:18:20.676Z,100.00
2023-04-18T03:19:22.133Z,100.00
2023-04-18T03:20:24.084Z,100.00
2023-04-18T03:21:25.594Z,100.00
2023-04-18T03:22:27.049Z,100.00
2023-04-18T03:23:28.441Z,99.87
2023-04-18T03:24:29.827Z,99.87
2023-04-18T03:25:31.285Z,100.00
2023-04-18T03:26:32.751Z,100.00
2023-04-18T03:27:34.154Z,100.00
2023-04-18T03:28:35.615Z,100.00
2023-04-18T03:29:37.084Z,100.00
2023-04-18T03:30:38.550Z,98.80
2023-04-18T03:31:41.357Z,98.87
2023-04-18T03:32:42.966Z,99.19
2023-04-18T03:33:45.578Z,99.54
2023-04-18T03:34:46.990Z,98.81
2023-04-18T03:35:48.508Z,98.52
2023-04-18T03:36:49.960Z,97.65
2023-04-18T03:37:51.468Z,97.28
2023-04-18T03:38:52.966Z,98.09
2023-04-18T03:39:54.733Z,97.94
2023-04-18T03:40:56.195Z,97.81
2023-04-18T03:41:57.585Z,97.75
2023-04-18T03:42:59.950Z,97.51
2023-04-18T03:44:01.366Z,97.39
2023-04-18T03:45:03.069Z,97.47
2023-04-18T03:46:04.621Z,97.14
2023-04-18T03:47:06.076Z,97.90
2023-04-18T03:48:07.493Z,96.97
2023-04-18T03:49:08.987Z,96.51
2023-04-18T03:50:10.640Z,97.26
2023-04-18T03:51:12.108Z,97.33
2023-04-18T03:52:13.523Z,97.95
2023-04-18T03:53:15.001Z,98.24
2023-04-18T03:54:17.102Z,98.83
2023-04-18T03:55:19.648Z,98.92
2023-04-18T03:56:21.358Z,99.36
2023-04-18T03:57:22.773Z,98.85
2023-04-18T03:58:24.265Z,99.39
2023-04-18T03:59:26.971Z,99.17
2023-04-18T04:00:28.502Z,99.10
2023-04-18T04:01:30.106Z,99.80
2023-04-18T04:02:31.676Z,100.00
2023-04-18T04:03:33.359Z,99.67
2023-04-18T04:04:34.874Z,99.57
2023-04-18T04:05:36.510Z,99.57
2023-04-18T04:06:37.976Z,99.83
2023-04-18T04:07:39.443Z,100.00
2023-04-18T04:08:41.437Z,100.00
2023-04-18T04:09:42.837Z,100.00
2023-04-18T04:10:44.279Z,100.00
2023-04-18T04:11:46.136Z,99.51
2023-04-18T04:12:47.667Z,98.93
2023-04-18T04:13:49.172Z,98.30
2023-04-18T04:14:50.643Z,98.22
2023-04-18T04:15:52.122Z,97.83
2023-04-18T04:16:53.742Z,97.97
2023-04-18T04:17:55.332Z,98.32
2023-04-18T04:18:56.759Z,99.13
2023-04-18T04:19:58.159Z,98.36
2023-04-18T04:21:00.420Z,99.05
2023-04-18T04:22:01.863Z,99.35
2023-04-18T04:23:03.375Z,99.56
2023-04-18T04:24:04.974Z,99.77
2023-04-18T04:25:10.410Z,100.00
2023-04-18T04:26:15.027Z,99.96
2023-04-18T04:27:18.682Z,100.00
2023-04-18T04:28:23.385Z,100.00
2023-04-18T04:29:24.923Z,99.18
2023-04-18T04:30:26.307Z,99.42
2023-04-18T04:31:28.648Z,99.58
2023-04-18T04:32:30.191Z,99.48
2023-04-18T04:33:33.251Z,100.00
2023-04-18T04:34:35.584Z,100.00
2023-04-18T04:35:37.071Z,100.00
2023-04-18T04:36:39.705Z,99.84
2023-04-18T04:37:41.278Z,99.84
2023-04-18T04:38:44.291Z,99.91
2023-04-18T04:39:46.128Z,99.20
2023-04-18T04:40:47.614Z,99.62
2023-04-18T04:41:49.656Z,99.84
2023-04-18T04:42:54.171Z,100.00
2023-04-18T04:43:55.630Z,99.23
2023-04-18T04:44:57.163Z,99.71
2023-04-18T04:45:58.736Z,99.75
2023-04-18T04:47:00.158Z,99.67
2023-04-18T04:48:01.747Z,98.98
2023-04-18T04:49:03.321Z,98.92
2023-04-18T04:50:07.400Z,99.02
2023-04-18T04:51:08.844Z,99.04
2023-04-18T04:52:10.479Z,99.23
2023-04-18T04:53:12.156Z,99.87
2023-04-18T04:54:14.052Z,98.85
2023-04-18T04:55:15.859Z,99.59
2023-04-18T04:56:17.353Z,99.34
2023-04-18T04:57:18.829Z,99.32
2023-04-18T04:58:20.411Z,100.00
2023-04-18T04:59:21.837Z,100.00
2023-04-18T05:00:23.619Z,100.00
2023-04-18T05:01:25.123Z,100.00
2023-04-18T05:02:26.777Z,100.00
2023-04-18T05:03:28.423Z,100.00
2023-04-18T05:04:30.144Z,99.95
2023-04-18T05:05:31.766Z,100.00
2023-04-18T05:06:33.653Z,99.38
2023-04-18T05:07:35.097Z,98.60
2023-04-18T05:08:36.658Z,98.36
2023-04-18T05:09:38.082Z,97.80
2023-04-18T05:10:39.588Z,98.09
2023-04-18T05:11:41.016Z,97.77
2023-04-18T05:12:42.406Z,98.65
2023-04-18T05:13:43.863Z,98.30
2023-04-18T05:14:45.366Z,96.95
2023-04-18T05:15:46.951Z,96.94
2023-04-18T05:16:48.430Z,97.04
2023-04-18T05:17:50.084Z,96.98
2023-04-18T05:18:51.600Z,97.23
2023-04-18T05:19:53.027Z,97.28
2023-04-18T05:20:55.737Z,95.79
2023-04-18T05:21:57.425Z,94.83
2023-04-18T05:22:58.833Z,94.06
2023-04-18T05:24:00.324Z,94.43
2023-04-18T05:25:02.117Z,94.42
2023-04-18T05:26:05.094Z,93.50
2023-04-18T05:27:07.016Z,93.18
2023-04-18T05:28:08.521Z,92.03
2023-04-18T05:29:09.981Z,91.04
2023-04-18T05:30:11.796Z,91.72
2023-04-18T05:31:13.382Z,91.55
2023-04-18T05:32:15.173Z,90.59
2023-04-18T05:33:16.595Z,88.08
2023-04-18T05:34:18.077Z,86.88
2023-04-18T05:35:19.675Z,87.35
2023-04-18T05:36:21.912Z,86.69
2023-04-18T05:37:23.528Z,87.13
2023-04-18T05:38:25.495Z,86.96
2023-04-18T05:39:27.102Z,85.72
2023-04-18T05:40:29.873Z,85.44
2023-04-18T05:41:31.511Z,85.50
2023-04-18T05:42:32.906Z,86.46
2023-04-18T05:43:34.393Z,86.53
2023-04-18T05:44:37.315Z,85.03
2023-04-18T05:45:38.838Z,84.42
2023-04-18T05:46:40.270Z,83.20
2023-04-18T05:47:41.756Z,83.59
2023-04-18T05:48:43.209Z,84.99
2023-04-18T05:49:44.704Z,83.07
2023-04-18T05:50:46.138Z,84.22
2023-04-18T05:51:49.877Z,84.09
2023-04-18T05:52:51.333Z,84.40
2023-04-18T05:53:52.760Z,82.98
2023-04-18T05:54:54.288Z,84.12
2023-04-18T05:55:57.496Z,83.31
2023-04-18T05:57:01.307Z,84.73
2023-04-18T05:58:03.968Z,86.18
2023-04-18T05:59:05.379Z,84.98
2023-04-18T06:00:08.325Z,85.81
2023-04-18T06:01:09.749Z,84.20
2023-04-18T06:02:13.564Z,85.73
2023-04-18T06:03:15.553Z,86.79
2023-04-18T06:04:17.402Z,87.87
2023-04-18T06:05:19.805Z,86.66
2023-04-18T06:06:21.984Z,87.54
2023-04-18T06:07:25.228Z,84.58
2023-04-18T06:08:26.649Z,86.86
2023-04-18T06:09:28.036Z,86.17
2023-04-18T06:10:29.652Z,85.84
2023-04-18T06:11:35.478Z,86.24
2023-04-18T06:12:37.141Z,85.23
2023-04-18T06:13:38.624Z,85.69
2023-04-18T06:14:40.597Z,85.63
2023-04-18T06:15:42.105Z,85.41
2023-04-18T06:16:43.645Z,86.12
2023-04-18T06:17:45.327Z,88.71
2023-04-18T06:18:46.805Z,89.56
2023-04-18T06:19:48.233Z,88.15
2023-04-18T06:20:49.783Z,88.11
2023-04-18T06:21:54.024Z,86.14
2023-04-18T06:22:55.480Z,88.29
2023-04-18T06:23:57.141Z,89.20
2023-04-18T06:24:58.608Z,88.66
2023-04-18T06:26:00.748Z,88.03
2023-04-18T06:27:02.201Z,86.08
2023-04-18T06:28:03.694Z,86.72
2023-04-18T06:29:05.200Z,87.07
2023-04-18T06:30:07.903Z,83.56
2023-04-18T06:31:09.442Z,83.88
2023-04-18T06:32:11.183Z,84.50
2023-04-18T06:33:12.627Z,83.65
2023-04-18T06:34:14.279Z,84.72
2023-04-18T06:35:16.692Z,84.50
2023-04-18T06:36:18.476Z,84.62
2023-04-18T06:37:20.579Z,84.20
2023-04-18T06:38:22.096Z,85.66
2023-04-18T06:39:23.539Z,88.21
2023-04-18T06:40:24.992Z,84.72
2023-04-18T06:41:26.448Z,84.16
2023-04-18T06:42:27.894Z,85.40
2023-04-18T06:43:29.388Z,85.79
2023-04-18T06:44:32.136Z,83.78
2023-04-18T06:45:33.813Z,82.77
2023-04-18T06:46:35.743Z,84.16
2023-04-18T06:47:37.717Z,83.78
2023-04-18T06:48:39.141Z,83.37
2023-04-18T06:49:40.567Z,84.43
2023-04-18T06:50:42.012Z,84.11
2023-04-18T06:51:43.481Z,83.20
2023-04-18T06:52:45.569Z,83.88
2023-04-18T06:53:52.567Z,83.95
2023-04-18T06:54:54.043Z,85.04
2023-04-18T06:55:55.500Z,83.98
2023-04-18T06:56:57.181Z,81.82
2023-04-18T06:58:00.394Z,83.03
2023-04-18T06:59:01.823Z,82.73
2023-04-18T07:00:04.820Z,84.12
2023-04-18T07:01:06.324Z,83.42
2023-04-18T07:02:08.301Z,82.05
2023-04-18T07:03:13.025Z,81.38
2023-04-18T07:04:15.061Z,81.58
2023-04-18T07:05:16.893Z,81.98
2023-04-18T07:06:18.693Z,82.14
2023-04-18T07:07:20.423Z,82.60
2023-04-18T07:08:21.817Z,83.65
2023-04-18T07:09:23.231Z,81.69
2023-04-18T07:10:24.745Z,81.38
2023-04-18T07:11:26.143Z,82.26
2023-04-18T07:12:27.691Z,82.37
2023-04-18T07:13:29.291Z,82.24
2023-04-18T07:14:32.868Z,83.03
2023-04-18T07:15:36.064Z,84.12
2023-04-18T07:16:37.800Z,81.84
2023-04-18T07:17:39.364Z,81.53
2023-04-18T07:18:40.820Z,81.97
2023-04-18T07:19:42.339Z,84.40
2023-04-18T07:20:43.745Z,81.23
2023-04-18T07:21:45.925Z,80.99
2023-04-18T07:22:48.052Z,80.67
2023-04-18T07:23:49.494Z,79.09
2023-04-18T07:24:50.930Z,79.09
2023-04-18T07:25:52.409Z,81.83
2023-04-18T07:26:55.208Z,80.05
2023-04-18T07:27:56.764Z,81.67
2023-04-18T07:28:58.197Z,80.73
2023-04-18T07:29:59.605Z,80.55
2023-04-18T07:31:02.943Z,79.86
2023-04-18T07:32:06.146Z,79.80
2023-04-18T07:33:09.071Z,79.51
2023-04-18T07:34:11.405Z,81.02
2023-04-18T07:35:13.267Z,80.29
2023-04-18T07:36:14.650Z,80.20
2023-04-18T07:37:18.242Z,79.60
2023-04-18T07:38:19.882Z,80.09
2023-04-18T07:39:21.306Z,81.57
2023-04-18T07:40:22.758Z,81.97
2023-04-18T07:41:24.196Z,83.67
2023-04-18T07:42:25.649Z,81.31
2023-04-18T07:43:27.304Z,82.56
2023-04-18T07:44:28.840Z,83.49
2023-04-18T07:45:30.931Z,82.23
2023-04-18T07:46:33.930Z,81.53
2023-04-18T07:47:35.507Z,81.12
2023-04-18T07:48:37.033Z,81.44
2023-04-18T07:49:38.710Z,80.77
2023-04-18T07:50:40.183Z,79.45
2023-04-18T07:51:41.621Z,80.39
2023-04-18T07:52:43.002Z,78.55
2023-04-18T07:53:44.481Z,75.57
2023-04-18T07:54:45.888Z,76.59
2023-04-18T07:55:47.464Z,76.49
2023-04-18T07:56:48.864Z,76.33
2023-04-18T07:57:50.552Z,75.55
2023-04-18T07:58:52.769Z,77.63
2023-04-18T07:59:54.316Z,79.88
2023-04-18T08:00:56.037Z,76.59
2023-04-18T08:01:57.912Z,79.31
2023-04-18T08:02:59.440Z,77.42
2023-04-18T08:04:02.018Z,78.01
2023-04-18T08:05:04.053Z,79.69
2023-04-18T08:06:05.980Z,78.35
2023-04-18T08:07:07.436Z,77.45
2023-04-18T08:08:10.657Z,77.49
2023-04-18T08:09:12.534Z,78.68
2023-04-18T08:10:14.250Z,79.22
2023-04-18T08:11:15.813Z,78.73
2023-04-18T08:12:17.239Z,76.51
2023-04-18T08:13:18.649Z,76.03
2023-04-18T08:14:20.204Z,75.87
2023-04-18T08:15:21.592Z,80.07
2023-04-18T08:16:23.037Z,78.71
2023-04-18T08:17:24.504Z,78.23
2023-04-18T08:18:26.375Z,77.46
2023-04-18T08:19:27.822Z,79.67
2023-04-18T08:20:29.273Z,79.71
2023-04-18T08:21:31.739Z,79.83
2023-04-18T08:22:33.828Z,80.65
2023-04-18T08:23:35.228Z,81.62
2023-04-18T08:24:41.695Z,81.74
2023-04-18T08:25:47.932Z,79.84
2023-04-18T08:26:49.430Z,80.16
2023-04-18T08:27:50.884Z,79.19
2023-04-18T08:28:52.453Z,79.41
2023-04-18T08:29:54.614Z,80.08
2023-04-18T08:30:56.512Z,82.04
2023-04-18T08:31:58.105Z,83.08
2023-04-18T08:33:00.629Z,83.05
2023-04-18T08:34:04.440Z,81.08
2023-04-18T08:35:06.772Z,81.65
2023-04-18T08:36:08.631Z,80.28
2023-04-18T08:37:10.333Z,80.97
2023-04-18T08:38:11.880Z,80.51
2023-04-18T08:39:13.523Z,79.78
2023-04-18T08:40:15.569Z,80.25
2023-04-18T08:41:21.683Z,80.58
2023-04-18T08:42:23.612Z,81.47
2023-04-18T08:43:25.350Z,81.63
2023-04-18T08:44:29.983Z,84.58
2023-04-18T08:45:34.366Z,84.80
2023-04-18T08:46:37.112Z,82.90
2023-04-18T08:47:38.583Z,82.98
2023-04-18T08:48:41.127Z,83.63
2023-04-18T08:49:45.538Z,84.40
2023-04-18T08:50:47.689Z,84.31
2023-04-18T08:51:51.731Z,82.50
2023-04-18T08:52:55.282Z,81.66
2023-04-18T08:53:57.568Z,81.29
2023-04-18T08:54:58.972Z,80.38
2023-04-18T08:56:01.414Z,79.75
2023-04-18T08:57:07.428Z,79.96
2023-04-18T08:58:08.948Z,80.13
2023-04-18T08:59:11.561Z,80.67
2023-04-18T09:00:13.965Z,80.16
2023-04-18T09:01:17.699Z,80.06
2023-04-18T09:02:22.005Z,81.31
2023-04-18T09:03:41.511Z,80.20
2023-04-18T09:04:45.585Z,80.69
2023-04-18T09:06:08.313Z,79.82
2023-04-18T09:07:14.323Z,80.95
2023-04-18T09:08:25.927Z,76.84
2023-04-18T09:09:27.608Z,77.35
2023-04-18T09:10:33.810Z,78.94
2023-04-18T09:11:35.641Z,76.09
2023-04-18T09:12:50.106Z,77.84
2023-04-18T09:13:53.130Z,76.39
2023-04-18T09:14:57.725Z,77.83
2023-04-18T09:15:59.200Z,73.96
2023-04-18T09:17:00.762Z,73.84
2023-04-18T09:18:03.395Z,74.12
2023-04-18T09:19:10.251Z,74.60
2023-04-18T09:20:15.366Z,74.41
2023-04-18T09:21:20.656Z,73.62
2023-04-18T09:22:22.896Z,75.35
2023-04-18T09:23:25.916Z,74.15
2023-04-18T09:24:30.357Z,74.12
2023-04-18T09:25:43.313Z,73.44
2023-04-18T09:26:47.736Z,74.74
2023-04-18T09:27:49.217Z,75.30
2023-04-18T09:28:53.873Z,72.56
2023-04-18T09:29:57.797Z,73.34
2023-04-18T09:31:12.161Z,76.19
2023-04-18T09:32:25.079Z,75.50
2023-04-18T09:33:33.573Z,73.66
2023-04-18T09:34:38.271Z,71.88
2023-04-18T09:35:39.766Z,72.68
2023-04-18T09:36:41.219Z,74.13
2023-04-18T09:37:50.552Z,72.97
2023-04-18T09:38:56.351Z,74.04
2023-04-18T09:39:58.495Z,71.37
2023-04-18T09:41:10.487Z,72.15
2023-04-18T09:42:13.903Z,72.61
2023-04-18T09:43:19.679Z,72.02
2023-04-18T09:44:21.333Z,71.48
2023-04-18T09:45:24.522Z,73.63
2023-04-18T09:46:27.299Z,72.15
2023-04-18T09:47:29.361Z,70.62
2023-04-18T09:48:30.840Z,72.42
2023-04-18T09:49:32.634Z,70.17
2023-04-18T09:50:35.642Z,70.70
2023-04-18T09:51:39.588Z,71.23
2023-04-18T09:52:42.832Z,70.45
2023-04-18T09:53:47.305Z,72.73
2023-04-18T09:54:53.596Z,73.06
2023-04-18T09:55:57.609Z,71.94
2023-04-18T09:57:03.588Z,69.83
2023-04-18T09:58:08.666Z,70.15
2023-04-18T09:59:11.354Z,69.68
2023-04-18T10:00:20.057Z,70.31
2023-04-18T10:01:23.090Z,69.91
2023-04-18T10:02:28.715Z,71.92
2023-04-18T10:03:35.132Z,70.05
2023-04-18T10:04:37.060Z,71.28
2023-04-18T10:05:41.242Z,70.27
2023-04-18T10:06:45.732Z,70.88
2023-04-18T10:07:49.094Z,71.30
2023-04-18T10:08:52.056Z,69.90
2023-04-18T10:09:53.569Z,71.62
2023-04-18T10:10:56.603Z,71.05
2023-04-18T10:11:59.248Z,70.95
2023-04-18T10:13:05.567Z,69.92
2023-04-18T10:14:11.884Z,68.67
2023-04-18T10:15:15.589Z,70.04
2023-04-18T10:16:18.113Z,68.38
2023-04-18T10:17:20.180Z,68.84
2023-04-18T10:18:24.711Z,68.27
2023-04-18T10:19:28.581Z,67.70
2023-04-18T10:20:32.272Z,68.88
2023-04-18T10:21:34.307Z,69.15
2023-04-18T10:22:35.791Z,70.65
2023-04-18T10:23:38.965Z,70.10
2023-04-18T10:24:50.000Z,68.72
2023-04-18T10:25:51.854Z,67.52
2023-04-18T10:26:53.269Z,66.66
2023-04-18T10:27:56.937Z,66.84
2023-04-18T10:28:59.508Z,65.65
2023-04-18T10:30:01.060Z,66.55
2023-04-18T10:31:04.108Z,67.59
2023-04-18T10:32:06.909Z,65.99
2023-04-18T10:33:40.962Z,68.78
2023-04-18T10:34:44.621Z,65.52
2023-04-18T10:36:01.132Z,64.57
2023-04-18T10:37:06.246Z,64.93
2023-04-18T10:38:17.175Z,65.80
2023-04-18T10:39:24.224Z,67.40
2023-04-18T10:40:33.546Z,67.33
2023-04-18T10:41:35.189Z,65.93
2023-04-18T10:42:45.577Z,66.66
2023-04-18T10:44:09.432Z,64.04
2023-04-18T10:45:24.540Z,65.31
2023-04-18T10:46:32.559Z,65.75
2023-04-18T10:47:34.561Z,68.12
2023-04-18T10:48:38.977Z,68.51
2023-04-18T10:49:53.315Z,66.69
2023-04-18T10:51:17.615Z,64.32
2023-04-18T10:52:19.100Z,66.99
2023-04-18T10:53:20.593Z,64.40
2023-04-18T10:54:32.171Z,65.36
2023-04-18T10:55:34.205Z,68.17
2023-04-18T10:56:35.974Z,64.70
2023-04-18T10:57:45.449Z,66.68
2023-04-18T10:58:51.966Z,65.89
2023-04-18T10:59:54.738Z,63.73
2023-04-18T11:00:56.364Z,63.81
2023-04-18T11:02:04.105Z,64.24
2023-04-18T11:03:06.108Z,66.46
2023-04-18T11:04:13.354Z,62.72
2023-04-18T11:05:28.848Z,65.56
2023-04-18T11:06:31.250Z,64.02
2023-04-18T11:07:42.229Z,64.74
2023-04-18T11:08:43.734Z,65.31
2023-04-18T11:09:54.829Z,67.16
2023-04-18T11:10:59.958Z,66.78
2023-04-18T11:12:09.033Z,66.75
2023-04-18T11:13:10.532Z,67.00
2023-04-18T11:14:12.324Z,66.29
2023-04-18T11:15:17.361Z,67.50
2023-04-18T11:16:29.525Z,68.97
2023-04-18T11:17:32.788Z,69.31
2023-04-18T11:18:43.627Z,68.11
2023-04-18T11:19:45.371Z,66.54
2023-04-18T11:20:51.515Z,65.19
2023-04-18T11:21:52.997Z,65.77
2023-04-18T11:22:59.693Z,63.55
2023-04-18T11:24:01.100Z,64.33
2023-04-18T11:25:07.903Z,66.17
2023-04-18T11:26:09.410Z,65.29
2023-04-18T11:27:12.475Z,66.59
2023-04-18T11:28:19.661Z,66.77
2023-04-18T11:29:21.141Z,64.88
2023-04-18T11:30:22.837Z,66.30
2023-04-18T11:31:24.883Z,66.93
2023-04-18T11:32:26.488Z,65.75
2023-04-18T11:33:29.256Z,68.42
2023-04-18T11:34:31.498Z,67.40
2023-04-18T11:35:40.435Z,65.81
2023-04-18T11:36:41.876Z,66.00
2023-04-18T11:37:45.864Z,66.46
2023-04-18T11:38:47.472Z,66.11
2023-04-18T11:39:51.885Z,66.73
2023-04-18T11:40:53.356Z,65.62
2023-04-18T11:41:57.016Z,66.17
2023-04-18T11:43:02.459Z,65.22
2023-04-18T11:44:06.446Z,66.11
2023-04-18T11:45:13.075Z,67.75
2023-04-18T11:46:14.556Z,65.26
2023-04-18T11:47:30.053Z,66.04
2023-04-18T11:48:38.951Z,65.30
2023-04-18T11:49:40.579Z,66.27
2023-04-18T11:50:42.049Z,66.39
2023-04-18T11:51:46.248Z,65.84
2023-04-18T11:52:51.078Z,66.40
2023-04-18T11:53:52.477Z,66.51
2023-04-18T11:54:54.193Z,66.18
2023-04-18T11:55:56.409Z,67.92
2023-04-18T11:56:57.814Z,65.37
2023-04-18T11:58:01.086Z,66.05
2023-04-18T11:59:09.047Z,66.23
2023-04-18T12:00:12.456Z,65.53
2023-04-18T12:01:21.704Z,65.64
2023-04-18T12:02:26.591Z,65.47
2023-04-18T12:03:29.681Z,65.16
2023-04-18T12:04:50.041Z,66.57
2023-04-18T12:06:02.325Z,66.00
2023-04-18T12:07:04.073Z,66.00
2023-04-18T12:08:26.828Z,65.22
2023-04-18T12:09:28.744Z,66.07
2023-04-18T12:10:30.178Z,65.99
2023-04-18T12:11:31.639Z,64.96
2023-04-18T12:12:33.386Z,65.78
2023-04-18T12:13:34.911Z,65.62
2023-04-18T12:14:36.307Z,64.88
2023-04-18T12:15:44.334Z,65.38
2023-04-18T12:16:45.983Z,65.61
2023-04-18T12:17:54.310Z,66.32
2023-04-18T12:19:00.320Z,67.42
2023-04-18T12:20:06.242Z,66.14
2023-04-18T12:21:08.624Z,66.24
2023-04-18T12:22:10.082Z,66.31
2023-04-18T12:23:38.226Z,67.78
2023-04-18T12:24:39.666Z,66.87
2023-04-18T12:25:41.326Z,66.30
2023-04-18T12:26:46.116Z,66.66
2023-04-18T12:27:58.654Z,65.62
2023-04-18T12:29:00.698Z,69.48
2023-04-18T12:30:02.123Z,67.12
2023-04-18T12:31:07.140Z,65.96
2023-04-18T12:32:08.665Z,66.02
2023-04-18T12:33:10.161Z,66.98
2023-04-18T12:34:11.802Z,66.53
2023-04-18T12:35:14.014Z,67.45
2023-04-18T12:36:15.443Z,68.08
2023-04-18T12:37:16.904Z,69.02
2023-04-18T12:38:22.560Z,66.74
2023-04-18T12:39:23.987Z,69.31
2023-04-18T12:40:26.624Z,67.88
2023-04-18T12:41:28.082Z,68.32
2023-04-18T12:42:29.536Z,68.93
2023-04-18T12:43:30.971Z,68.38
2023-04-18T12:44:32.475Z,68.50
2023-04-18T12:45:33.941Z,70.74
2023-04-18T12:46:35.551Z,69.52
2023-04-18T12:47:41.114Z,69.37
2023-04-18T12:48:42.753Z,69.52
2023-04-18T12:49:44.166Z,67.35
2023-04-18T12:50:45.612Z,68.43
2023-04-18T12:51:47.020Z,68.21
2023-04-18T12:52:49.406Z,67.19
2023-04-18T12:53:50.850Z,68.47
2023-04-18T12:54:52.662Z,68.79
2023-04-18T12:55:54.119Z,70.00
2023-04-18T12:56:56.261Z,67.51
2023-04-18T12:58:00.832Z,67.23
2023-04-18T12:59:02.251Z,69.76
2023-04-18T13:00:10.337Z,68.26
2023-04-18T13:01:13.996Z,66.93
2023-04-18T13:02:15.691Z,67.51
2023-04-18T13:03:17.359Z,68.89
2023-04-18T13:04:19.120Z,69.92
2023-04-18T13:05:22.921Z,71.05
2023-04-18T13:06:24.509Z,70.88
2023-04-18T13:07:25.977Z,68.32
2023-04-18T13:08:27.449Z,67.94
2023-04-18T13:09:29.159Z,67.01
2023-04-18T13:10:31.088Z,67.77
2023-04-18T13:11:32.388Z,69.86
2023-04-18T13:12:34.062Z,67.83
2023-04-18T13:13:36.037Z,67.50
2023-04-18T13:14:37.884Z,69.01
2023-04-18T13:15:39.656Z,68.94
2023-04-18T13:16:43.561Z,68.41
2023-04-18T13:17:45.429Z,69.16
2023-04-18T13:18:47.092Z,70.42
2023-04-18T13:19:49.104Z,67.56
2023-04-18T13:20:50.614Z,67.66
2023-04-18T13:21:53.183Z,69.88
2023-04-18T13:22:54.596Z,71.29
2023-04-18T13:23:56.015Z,66.44